• Join FlightAware (Why Join?)
  • Login
  • US Flag 
03:07PM EDT


 

Airport Tracker/Info


-or-


 

Live Flight TrackerFlight Track Log ✈ N27XP ✈ 03-Jun-2013 ✈ KGGE - KSOP

Flight Track Log - Related Links

Times and Time Zones

All times are in EDT time to prevent confusion due to time zone crossing. See the N27XP flight status page for this flight to view local times or setup timezone preferences in your user account.

Time Position Orientation Groundspeed Altitude Reporting Facility
EDT Latitude Longitude Course Direction KTS MPH feet Rate Location/Type
07:34PM 33.5203 -79.3050 354° North 273 314 9,600  Level Jacksonville Center
07:35PM 33.6039 -79.3092 358° North 279 321 11,100 1,500 Climbing Jacksonville Center
07:36PM 33.6917 -79.3131 358° North 295 339 12,700 900 Climbing Jacksonville Center
07:37PM 33.7900 -79.3192 357° North 312 359 12,900 60 Climbing Jacksonville Center
07:38PM 33.8967 -79.3247 358° North 345 397 12,900  Level Jacksonville Center
07:39PM 33.7002 -79.3313 354° North  Level FlightAware Approximate
07:39PM 34.0072 -79.3303 358° North 372 428 12,900  Level Jacksonville Center
07:40PM 34.1097 -79.3361 357° North 385 443 12,900 -600 Level Jacksonville Center
07:42PM 34.3528 -79.3450 358° North 382 440 11,000 -600 Descending Washington Center
07:43PM 34.4422 -79.3592 353° North 367 422 11,000  Level Washington Center
07:44PM 34.5500 -79.3794 351° North 362 417 11,100  Climbing Washington Center
07:45PM 34.6392 -79.3936 353° North 357 411 11,100 -1,080 Level Washington Center
07:46PM 34.7408 -79.4108 352° North 346 398 9,000 -2,100 Descending Washington Center
07:47PM 34.8136 -79.4244 351° North 306 352 6,900 -2,040 Descending Washington Center
07:48PM 34.8925 -79.4383 352° North 267 307 5,000 -1,680 Descending Washington Center
07:49PM 34.9436 -79.4661 336° Northwest 231 266 3,600 -960 Descending Washington Center
07:50PM 35.0011 -79.4967 336° Northwest 207 238 3,100 -300 Descending Washington Center
07:51PM 35.0442 -79.5192 337° Northwest 187 215 3,100  Level Washington Center
07:52PM 35.0744 -79.4900 38° Northeast 134 154 3,100  Level Washington Center
07:54PM 35.1400 -79.4493 351° North  Level Estimated
08:01PM 35.2333 -79.3833 North  Level FlightAware Approximate